Time;durP1;ratioP1;P1;durP2;ratioP2;P2;SDS_P1;SDS_P2;PMS_P1;PMS_P2;Temp;Humidity;BMP_temperature;BMP_pressure;BME280_temperature;BME280_humidity;BME280_pressure;Samples;Min_cycle;Max_cycle;Signal;HPM_P1;HPM_P2
2021/01/13 00:01:36;;;;;;;12.07;1.13;;;;;;;;;;5038193;28;20081;-62
2021/01/13 00:04:02;;;;;;;4.32;1.23;;;;;;;;;;5040542;28;20049;-61
2021/01/13 00:06:29;;;;;;;7.00;1.17;;;;;;;;;;5024164;28;20050;-61
2021/01/13 00:08:55;;;;;;;5.13;1.30;;;;;;;;;;5001666;28;20131;-61
2021/01/13 00:11:21;;;;;;;13.40;1.45;;;;;;;;;;4999328;28;20042;-61
2021/01/13 00:13:47;;;;;;;7.50;1.15;;;;;;;;;;5001712;28;20049;-62
2021/01/13 00:16:13;;;;;;;9.77;1.17;;;;;;;;;;5001955;28;20045;-61
2021/01/13 00:18:39;;;;;;;7.65;1.20;;;;;;;;;;5017663;28;20048;-61
2021/01/13 00:21:12;;;;;;;5.40;1.10;;;;;;;;;;5023697;28;20033;-61
2021/01/13 00:23:41;;;;;;;2.67;1.13;;;;;;;;;;5001652;28;20046;-61
2021/01/13 00:26:07;;;;;;;3.15;0.98;;;;;;;;;;5003865;28;20038;-61
2021/01/13 00:28:33;;;;;;;4.82;1.17;;;;;;;;;;4997487;28;20057;-61
2021/01/13 00:30:59;;;;;;;10.35;1.17;;;;;;;;;;5001827;28;20045;-61
2021/01/13 00:33:28;;;;;;;6.95;1.23;;;;;;;;;;5009164;28;20026;-61
2021/01/13 00:35:54;;;;;;;;;;;;;;;;;;5022392;28;20041;-61
2021/01/13 00:38:20;;;;;;;10.00;1.10;;;;;;;;;;5029045;28;19928;-62
2021/01/13 00:40:48;;;;;;;3.35;1.05;;;;;;;;;;5020655;28;20049;-61
2021/01/13 00:43:14;;;;;;;5.90;1.15;;;;;;;;;;5009427;28;20044;-60
2021/01/13 00:45:40;;;;;;;4.43;1.10;;;;;;;;;;5022269;28;20038;-60
2021/01/13 00:48:07;;;;;;;4.95;1.10;;;;;;;;;;5015422;28;20042;-61
2021/01/13 00:50:32;;;;;;;10.25;1.30;;;;;;;;;;5003315;28;20026;-61
2021/01/13 00:52:58;;;;;;;2.03;0.70;;;;;;;;;;5000137;28;20068;-61
2021/01/13 00:55:25;;;;;;;7.35;1.60;;;;;;;;;;5002316;28;20139;-62
2021/01/13 00:57:53;;;;;;;3.40;1.10;;;;;;;;;;5002018;28;20049;-62
2021/01/13 01:00:19;;;;;;;5.60;0.85;;;;;;;;;;4996891;28;20042;-61
2021/01/13 01:02:45;;;;;;;7.15;1.10;;;;;;;;;;5001408;28;20041;-62
2021/01/13 01:05:11;;;;;;;6.63;0.80;;;;;;;;;;4998288;28;20050;-61
2021/01/13 01:07:41;;;;;;;8.30;1.25;;;;;;;;;;5002590;28;20030;-60
2021/01/13 01:10:08;;;;;;;5.50;1.20;;;;;;;;;;4999406;28;20026;-61
2021/01/13 01:12:34;;;;;;;9.60;0.95;;;;;;;;;;5002004;28;20046;-61
2021/01/13 01:15:01;;;;;;;3.38;1.13;;;;;;;;;;5012504;28;20037;-62
2021/01/13 01:17:27;;;;;;;4.22;0.75;;;;;;;;;;5024038;28;20034;-61
2021/01/13 01:19:53;;;;;;;6.43;0.60;;;;;;;;;;5011709;28;20045;-61
2021/01/13 01:22:19;;;;;;;7.97;0.68;;;;;;;;;;5005611;28;20038;-61
2021/01/13 01:24:45;;;;;;;8.65;0.70;;;;;;;;;;4999357;28;20041;-62
2021/01/13 01:27:11;;;;;;;5.65;0.57;;;;;;;;;;5005917;28;20049;-62
2021/01/13 01:29:37;;;;;;;6.05;0.70;;;;;;;;;;5003071;28;20041;-60
2021/01/13 01:32:05;;;;;;;2.08;0.43;;;;;;;;;;5024366;28;20127;-62
2021/01/13 01:34:32;;;;;;;7.88;0.70;;;;;;;;;;5020120;28;20061;-60
2021/01/13 01:36:58;;;;;;;2.40;0.70;;;;;;;;;;5004342;28;20038;-61
2021/01/13 01:39:24;;;;;;;6.72;0.80;;;;;;;;;;5023899;28;20022;-62
2021/01/13 01:41:50;;;;;;;5.63;0.65;;;;;;;;;;5002969;28;20049;-61
2021/01/13 01:44:15;;;;;;;3.53;0.60;;;;;;;;;;5003871;28;20161;-62
2021/01/13 01:46:44;;;;;;;5.22;0.68;;;;;;;;;;5001283;28;20053;-61
2021/01/13 01:49:13;;;;;;;2.67;0.50;;;;;;;;;;5001560;28;20115;-62
2021/01/13 01:51:39;;;;;;;;;;;;;;;;;;5012836;28;20053;-61
2021/01/13 01:54:12;;;;;;;3.33;0.50;;;;;;;;;;5023215;28;19933;-61
2021/01/13 01:56:38;;;;;;;2.67;0.50;;;;;;;;;;5012500;28;20144;-61
2021/01/13 01:59:05;;;;;;;4.53;0.70;;;;;;;;;;5039745;28;20073;-61
2021/01/13 02:01:35;;;;;;;4.25;0.50;;;;;;;;;;5028354;28;20041;-61
2021/01/13 02:04:06;;;;;;;2.80;0.65;;;;;;;;;;5044082;28;20120;-62
2021/01/13 02:06:33;;;;;;;7.93;0.90;;;;;;;;;;5039685;28;20046;-62
2021/01/13 02:08:59;;;;;;;6.72;0.98;;;;;;;;;;5043723;28;20041;-61
2021/01/13 02:11:27;;;;;;;3.45;0.60;;;;;;;;;;5038443;28;20046;-61
2021/01/13 02:13:53;;;;;;;2.88;0.75;;;;;;;;;;5026091;28;20033;-61
2021/01/13 02:16:20;;;;;;;6.95;0.63;;;;;;;;;;5024439;28;20048;-62
2021/01/13 02:18:47;;;;;;;5.85;0.73;;;;;;;;;;5042308;28;20037;-62
2021/01/13 02:21:15;;;;;;;4.45;0.50;;;;;;;;;;5043070;28;20049;-61
2021/01/13 02:23:46;;;;;;;5.35;0.55;;;;;;;;;;5042264;28;20124;-62
2021/01/13 02:26:39;;;;;;;6.20;0.63;;;;;;;;;;5042914;28;20044;-61
2021/01/13 02:29:29;;;;;;;7.25;0.63;;;;;;;;;;5021798;28;20045;-61
2021/01/13 02:32:06;;;;;;;5.82;0.82;;;;;;;;;;5018442;28;20029;-61
2021/01/13 02:34:47;;;;;;;5.33;0.80;;;;;;;;;;5043519;28;20037;-61
2021/01/13 02:37:34;;;;;;;1.70;0.57;;;;;;;;;;5036411;28;20048;-62
2021/01/13 02:40:04;;;;;;;8.00;0.73;;;;;;;;;;5041147;28;20041;-61
2021/01/13 02:42:32;;;;;;;1.17;0.57;;;;;;;;;;5039605;28;20052;-62
2021/01/13 02:44:58;;;;;;;;;;;;;;;;;;5042078;28;20156;-62
2021/01/13 02:47:32;;;;;;;2.75;0.70;;;;;;;;;;5054497;28;19916;-61
2021/01/13 02:49:59;;;;;;;4.47;0.52;;;;;;;;;;5039960;28;20049;-61
2021/01/13 02:52:31;;;;;;;2.63;0.77;;;;;;;;;;5042343;28;20037;-61
2021/01/13 02:55:03;;;;;;;2.05;0.55;;;;;;;;;;5037847;28;20058;-61
2021/01/13 02:57:29;;;;;;;3.75;0.50;;;;;;;;;;5022393;28;20081;-61
2021/01/13 02:59:56;;;;;;;5.35;0.70;;;;;;;;;;5037794;28;20049;-62
2021/01/13 03:02:33;;;;;;;7.05;0.70;;;;;;;;;;5041094;28;20060;-61
2021/01/13 03:05:00;;;;;;;5.72;0.75;;;;;;;;;;5038177;28;20056;-61
2021/01/13 03:07:26;;;;;;;4.18;0.65;;;;;;;;;;5043239;28;20056;-61
2021/01/13 03:09:57;;;;;;;1.45;0.40;;;;;;;;;;5038107;28;20134;-62
2021/01/13 03:12:24;;;;;;;3.35;0.75;;;;;;;;;;5042572;28;20025;-60
2021/01/13 03:14:52;;;;;;;3.80;0.90;;;;;;;;;;5038866;28;20044;-61
2021/01/13 03:17:31;;;;;;;4.95;1.00;;;;;;;;;;5043215;28;20037;-61
2021/01/13 03:20:17;;;;;;;6.38;0.77;;;;;;;;;;5038464;28;20045;-61
2021/01/13 03:22:48;;;;;;;8.30;0.80;;;;;;;;;;5042238;28;20041;-60
2021/01/13 03:25:15;;;;;;;6.90;0.90;;;;;;;;;;5037901;28;20044;-61
2021/01/13 03:27:43;;;;;;;1.40;0.60;;;;;;;;;;5042490;28;20041;-61
2021/01/13 03:30:09;;;;;;;4.30;0.80;;;;;;;;;;5038285;28;20033;-61
2021/01/13 03:32:42;;;;;;;4.68;0.70;;;;;;;;;;5042821;28;20135;-62
2021/01/13 03:35:09;;;;;;;3.17;0.70;;;;;;;;;;5043585;28;20041;-60
2021/01/13 03:38:00;;;;;;;7.45;0.85;;;;;;;;;;5034539;28;20037;-60
2021/01/13 03:40:30;;;;;;;6.13;0.70;;;;;;;;;;5028594;28;20114;-61
2021/01/13 03:42:59;;;;;;;7.75;0.80;;;;;;;;;;5041092;28;20049;-61
2021/01/13 03:45:37;;;;;;;1.75;0.60;;;;;;;;;;5038858;28;20114;-62
2021/01/13 03:48:07;;;;;;;3.20;0.50;;;;;;;;;;5042627;28;20086;-60
2021/01/13 03:50:34;;;;;;;2.65;0.40;;;;;;;;;;5038133;28;20033;-61
2021/01/13 03:53:02;;;;;;;3.60;0.65;;;;;;;;;;5042148;28;20029;-62
2021/01/13 03:55:29;;;;;;;2.17;0.30;;;;;;;;;;5038351;28;20053;-61
2021/01/13 03:58:14;;;;;;;5.80;0.43;;;;;;;;;;5042039;28;20041;-61
2021/01/13 04:00:41;;;;;;;2.03;0.40;;;;;;;;;;5038243;28;20037;-61
2021/01/13 04:03:12;;;;;;;3.85;0.63;;;;;;;;;;5041198;28;20260;-61
2021/01/13 04:05:41;;;;;;;2.65;0.65;;;;;;;;;;5038273;28;20067;-61
2021/01/13 04:08:10;;;;;;;2.80;0.55;;;;;;;;;;5041072;28;20097;-61
2021/01/13 04:10:37;;;;;;;10.20;1.30;;;;;;;;;;5038174;28;20040;-61
2021/01/13 04:13:07;;;;;;;6.50;1.00;;;;;;;;;;5042233;28;20048;-60
2021/01/13 04:15:35;;;;;;;5.15;0.50;;;;;;;;;;5042004;28;20033;-61
2021/01/13 04:18:03;;;;;;;2.30;0.60;;;;;;;;;;5037533;28;20053;-60
2021/01/13 04:20:30;;;;;;;6.18;0.60;;;;;;;;;;5041912;28;20041;-60
2021/01/13 04:22:56;;;;;;;4.70;0.75;;;;;;;;;;5038383;28;20052;-60
2021/01/13 04:25:24;;;;;;;4.53;0.68;;;;;;;;;;5040749;28;20049;-61
2021/01/13 04:27:50;;;;;;;3.25;0.75;;;;;;;;;;5048597;28;20049;-60
2021/01/13 04:30:17;;;;;;;4.60;0.50;;;;;;;;;;5040355;28;20049;-60
2021/01/13 04:32:45;;;;;;;3.05;0.35;;;;;;;;;;5039455;28;20041;-61
2021/01/13 04:35:12;;;;;;;5.45;0.68;;;;;;;;;;5042021;28;20053;-61
2021/01/13 04:37:40;;;;;;;14.65;0.80;;;;;;;;;;5033580;28;20044;-61
2021/01/13 04:40:24;;;;;;;1.20;0.37;;;;;;;;;;5021311;28;20107;-61
2021/01/13 04:42:58;;;;;;;5.75;0.60;;;;;;;;;;5028373;28;20290;-61
2021/01/13 04:45:34;;;;;;;3.75;0.47;;;;;;;;;;5041750;28;20048;-61
2021/01/13 04:48:03;;;;;;;5.05;0.52;;;;;;;;;;5034239;28;20049;-61
2021/01/13 04:50:33;;;;;;;3.55;0.45;;;;;;;;;;5040018;28;20046;-61
2021/01/13 04:52:59;;;;;;;3.90;0.57;;;;;;;;;;5036926;28;20068;-61
2021/01/13 04:55:26;;;;;;;2.40;0.63;;;;;;;;;;5040160;28;20099;-62
2021/01/13 04:58:15;;;;;;;2.25;0.50;;;;;;;;;;5036487;28;20048;-61
2021/01/13 05:00:46;;;;;;;4.78;0.32;;;;;;;;;;5041296;28;20037;-62
2021/01/13 05:03:33;;;;;;;2.75;0.52;;;;;;;;;;5038058;28;20099;-61
2021/01/13 05:06:06;;;;;;;2.50;0.55;;;;;;;;;;5042685;28;20092;-60
2021/01/13 05:08:32;;;;;;;9.70;1.50;;;;;;;;;;5037396;28;20045;-60
2021/01/13 05:11:08;;;;;;;3.95;0.38;;;;;;;;;;5042164;28;20087;-61
2021/01/13 05:13:35;;;;;;;15.93;1.10;;;;;;;;;;5038277;28;20037;-61
2021/01/13 05:16:08;;;;;;;6.93;0.82;;;;;;;;;;5041704;28;20034;-61
2021/01/13 05:18:51;;;;;;;5.45;0.68;;;;;;;;;;5036961;28;20084;-60
2021/01/13 05:21:19;;;;;;;2.53;0.60;;;;;;;;;;5042179;28;20042;-60
2021/01/13 05:23:48;;;;;;;5.35;0.47;;;;;;;;;;5037509;28;20469;-61
2021/01/13 05:26:17;;;;;;;6.38;1.25;;;;;;;;;;5040708;28;20037;-61
2021/01/13 05:28:52;;;;;;;5.07;0.47;;;;;;;;;;5036338;28;20036;-61
2021/01/13 05:31:24;;;;;;;3.65;0.47;;;;;;;;;;5041110;28;20045;-61
2021/01/13 05:33:50;;;;;;;7.28;0.57;;;;;;;;;;5036653;28;20039;-61
2021/01/13 05:36:18;;;;;;;7.43;0.68;;;;;;;;;;5039893;28;20033;-60
2021/01/13 05:38:58;;;;;;;12.02;0.88;;;;;;;;;;5037257;28;20054;-60
2021/01/13 05:41:25;;;;;;;2.92;0.68;;;;;;;;;;5038018;28;20041;-60
2021/01/13 05:43:52;;;;;;;10.32;0.50;;;;;;;;;;5019602;28;20053;-60
2021/01/13 05:46:19;;;;;;;10.05;0.80;;;;;;;;;;5036724;28;20045;-61
2021/01/13 05:48:47;;;;;;;1.50;0.45;;;;;;;;;;5040554;28;20044;-61
2021/01/13 05:51:13;;;;;;;4.82;0.68;;;;;;;;;;5035103;28;20052;-61
2021/01/13 05:53:49;;;;;;;5.40;0.70;;;;;;;;;;5040114;28;20041;-61
2021/01/13 05:56:16;;;;;;;4.72;0.63;;;;;;;;;;5036518;28;20051;-61
2021/01/13 05:58:42;;;;;;;4.97;0.88;;;;;;;;;;5040559;28;20052;-60
2021/01/13 06:01:23;;;;;;;3.70;0.75;;;;;;;;;;5038338;28;20037;-60
2021/01/13 06:03:49;;;;;;;9.77;1.20;;;;;;;;;;5036425;28;20087;-61
2021/01/13 06:06:17;;;;;;;5.70;0.70;;;;;;;;;;5039987;28;20057;-61
2021/01/13 06:08:44;;;;;;;9.38;0.82;;;;;;;;;;5043681;28;20045;-61
2021/01/13 06:11:12;;;;;;;6.32;0.95;;;;;;;;;;5039844;28;20069;-60
2021/01/13 06:13:41;;;;;;;16.35;0.93;;;;;;;;;;5042986;28;20048;-61
2021/01/13 06:16:07;;;;;;;3.70;0.80;;;;;;;;;;5040257;28;20029;-61
2021/01/13 06:18:35;;;;;;;8.10;0.90;;;;;;;;;;5043293;28;20074;-60
2021/01/13 06:21:08;;;;;;;3.25;0.90;;;;;;;;;;5040701;28;20055;-61
2021/01/13 06:23:41;;;;;;;13.98;1.23;;;;;;;;;;5044390;28;20037;-60
2021/01/13 06:26:07;;;;;;;13.13;0.88;;;;;;;;;;5040525;28;20033;-60
2021/01/13 06:28:48;;;;;;;5.68;0.88;;;;;;;;;;5044922;28;20095;-61
2021/01/13 06:31:16;;;;;;;5.57;0.70;;;;;;;;;;5040735;28;20042;-61
2021/01/13 06:34:04;;;;;;;4.27;1.00;;;;;;;;;;5044374;28;20053;-60
2021/01/13 06:36:36;;;;;;;6.90;1.05;;;;;;;;;;5038467;28;20135;-60
2021/01/13 06:39:07;;;;;;;5.53;0.85;;;;;;;;;;5042773;28;20045;-61
2021/01/13 06:41:44;;;;;;;4.55;0.80;;;;;;;;;;5040337;28;20053;-61
2021/01/13 06:44:09;;;;;;;7.47;0.82;;;;;;;;;;5041566;28;20049;-61
2021/01/13 06:46:36;;;;;;;6.53;0.90;;;;;;;;;;5040010;28;20052;-60
2021/01/13 06:49:13;;;;;;;17.27;1.10;;;;;;;;;;5039876;28;20038;-61
2021/01/13 06:51:43;;;;;;;6.40;0.73;;;;;;;;;;5041719;28;20033;-61
2021/01/13 06:54:11;;;;;;;4.57;0.85;;;;;;;;;;5038981;28;20042;-61
2021/01/13 06:56:45;;;;;;;11.60;1.92;;;;;;;;;;5043311;28;20064;-61
2021/01/13 06:59:12;;;;;;;19.90;5.03;;;;;;;;;;5040251;28;20048;-61
2021/01/13 07:01:47;;;;;;;11.60;2.13;;;;;;;;;;5041977;28;20037;-61
2021/01/13 07:04:14;;;;;;;5.82;1.10;;;;;;;;;;5037294;28;20060;-61
2021/01/13 07:06:41;;;;;;;7.82;1.00;;;;;;;;;;5041286;28;20057;-60
2021/01/13 07:09:09;;;;;;;5.68;1.20;;;;;;;;;;5037600;28;20037;-62
2021/01/13 07:11:39;;;;;;;7.13;1.10;;;;;;;;;;5041643;28;20049;-61
2021/01/13 07:14:05;;;;;;;4.13;1.15;;;;;;;;;;5037762;28;20095;-62
2021/01/13 07:16:32;;;;;;;4.60;1.00;;;;;;;;;;5041258;28;20045;-61
2021/01/13 07:19:02;;;;;;;5.07;0.70;;;;;;;;;;5036808;28;20056;-60
2021/01/13 07:21:36;;;;;;;5.30;0.65;;;;;;;;;;5041653;28;20057;-61
2021/01/13 07:24:03;;;;;;;6.97;0.52;;;;;;;;;;5036289;28;20041;-61
2021/01/13 07:26:30;;;;;;;6.30;0.85;;;;;;;;;;5034301;28;20131;-61
2021/01/13 07:28:56;;;;;;;6.00;0.90;;;;;;;;;;5038509;28;20037;-61
2021/01/13 07:31:28;;;;;;;4.95;1.15;;;;;;;;;;5042410;28;20061;-61
2021/01/13 07:33:59;;;;;;;5.60;1.13;;;;;;;;;;5038279;28;20053;-60
2021/01/13 07:36:29;;;;;;;9.13;0.80;;;;;;;;;;5042780;28;20040;-60
2021/01/13 07:38:56;;;;;;;4.40;1.08;;;;;;;;;;5037602;28;20041;-61
2021/01/13 07:41:36;;;;;;;10.95;1.50;;;;;;;;;;5041082;28;20041;-61
2021/01/13 07:44:15;;;;;;;11.50;1.25;;;;;;;;;;5051503;28;20073;-61
2021/01/13 07:46:48;;;;;;;7.93;1.08;;;;;;;;;;5043471;28;20114;-61
2021/01/13 07:49:19;;;;;;;6.45;1.85;;;;;;;;;;5036899;28;20029;-60
2021/01/13 07:51:49;;;;;;;20.88;5.05;;;;;;;;;;5042948;28;20030;-61
2021/01/13 07:54:28;;;;;;;11.88;2.30;;;;;;;;;;5040701;28;20077;-61
2021/01/13 07:56:56;;;;;;;4.32;1.67;;;;;;;;;;5031793;28;20052;-61
2021/01/13 07:59:39;;;;;;;2.72;1.13;;;;;;;;;;5044127;28;20037;-61
2021/01/13 08:02:26;;;;;;;7.78;0.93;;;;;;;;;;5042876;28;20049;-61
2021/01/13 08:08:06;;;;;;;5.43;0.75;;;;;;;;;;4996047;28;20049;-60
2021/01/13 08:10:36;;;;;;;5.57;0.88;;;;;;;;;;5038679;28;20088;-61
2021/01/13 08:13:17;;;;;;;3.40;0.77;;;;;;;;;;5040895;28;20045;-61
2021/01/13 08:15:50;;;;;;;9.63;1.08;;;;;;;;;;5038470;28;20045;-61
2021/01/13 08:18:50;;;;;;;4.63;0.77;;;;;;;;;;5038008;28;20037;-60
2021/01/13 08:21:24;;;;;;;5.82;1.00;;;;;;;;;;5045130;28;20041;-60
2021/01/13 08:23:51;;;;;;;10.23;1.10;;;;;;;;;;5040312;28;20052;-60
2021/01/13 08:26:21;;;;;;;4.38;0.90;;;;;;;;;;5021740;28;20052;-61
2021/01/13 08:28:50;;;;;;;9.80;1.25;;;;;;;;;;5031085;28;20127;-61
2021/01/13 08:31:19;;;;;;;3.08;0.90;;;;;;;;;;5032352;28;20041;-61
2021/01/13 08:33:48;;;;;;;10.65;1.08;;;;;;;;;;5041371;28;20037;-61
2021/01/13 08:36:15;;;;;;;7.03;0.85;;;;;;;;;;5031232;28;20051;-61
2021/01/13 08:39:02;;;;;;;5.65;1.13;;;;;;;;;;5039391;28;20060;-61
2021/01/13 08:41:30;;;;;;;5.28;1.05;;;;;;;;;;5021089;28;20064;-61
2021/01/13 08:44:04;;;;;;;5.47;0.95;;;;;;;;;;5020213;28;20049;-61
2021/01/13 08:46:38;;;;;;;4.18;1.15;;;;;;;;;;4988130;28;20120;-62
2021/01/13 08:49:07;;;;;;;4.32;0.88;;;;;;;;;;5021362;28;20056;-61
2021/01/13 08:52:00;;;;;;;5.05;1.05;;;;;;;;;;5018848;28;20048;-61
2021/01/13 08:54:27;;;;;;;5.43;1.00;;;;;;;;;;5025073;28;20148;-61
2021/01/13 08:56:58;;;;;;;7.03;1.27;;;;;;;;;;5011412;28;20049;-62
2021/01/13 08:59:34;;;;;;;3.00;0.90;;;;;;;;;;5011788;28;20134;-61
2021/01/13 09:02:02;;;;;;;3.30;1.10;;;;;;;;;;5036397;28;20042;-61
2021/01/13 09:04:38;;;;;;;6.95;1.67;;;;;;;;;;5041087;28;20081;-61
2021/01/13 09:07:05;;;;;;;5.88;1.35;;;;;;;;;;5038298;28;20060;-60
2021/01/13 09:09:33;;;;;;;12.73;2.40;;;;;;;;;;5040752;28;20052;-61
2021/01/13 09:12:24;;;;;;;11.85;2.88;;;;;;;;;;5041809;28;20045;-61
2021/01/13 09:15:07;;;;;;;6.20;1.52;;;;;;;;;;5019858;28;20058;-61
2021/01/13 09:17:37;;;;;;;8.32;1.08;;;;;;;;;;5019708;28;20058;-61
2021/01/13 09:20:04;;;;;;;6.35;0.98;;;;;;;;;;5039439;28;20041;-62
2021/01/13 09:22:47;;;;;;;9.63;1.13;;;;;;;;;;5033795;28;20033;-61
2021/01/13 09:25:16;;;;;;;7.07;1.10;;;;;;;;;;5032464;28;20048;-61
2021/01/13 09:27:48;;;;;;;6.25;1.15;;;;;;;;;;5021501;28;20038;-61
2021/01/13 09:30:28;;;;;;;8.55;1.15;;;;;;;;;;5036356;28;20057;-61
2021/01/13 09:32:56;;;;;;;11.02;1.02;;;;;;;;;;5022089;28;20042;-61
2021/01/13 09:35:23;;;;;;;9.85;1.40;;;;;;;;;;5045060;28;20052;-61
2021/01/13 09:37:51;;;;;;;7.75;1.10;;;;;;;;;;5032549;28;20052;-61
2021/01/13 09:40:21;;;;;;;11.57;1.15;;;;;;;;;;5031970;28;20055;-61
2021/01/13 09:42:54;;;;;;;7.15;0.95;;;;;;;;;;5043019;28;20102;-61
2021/01/13 09:45:20;;;;;;;4.63;1.15;;;;;;;;;;5036725;28;20049;-61
2021/01/13 09:47:47;;;;;;;2.95;0.80;;;;;;;;;;5041765;28;20059;-61
2021/01/13 09:50:15;;;;;;;2.80;0.77;;;;;;;;;;5031349;28;20080;-61
2021/01/13 09:52:42;;;;;;;6.70;1.20;;;;;;;;;;5042178;28;20045;-61
2021/01/13 09:55:09;;;;;;;13.10;1.83;;;;;;;;;;5040106;28;20061;-61
2021/01/13 09:57:35;;;;;;;6.72;1.67;;;;;;;;;;5043499;28;20090;-61
2021/01/13 10:00:05;;;;;;;4.40;1.40;;;;;;;;;;5040010;28;20052;-61
2021/01/13 10:02:32;;;;;;;10.25;1.10;;;;;;;;;;5040755;28;20073;-60
2021/01/13 10:04:59;;;;;;;9.05;1.00;;;;;;;;;;5039607;28;20060;-61
2021/01/13 10:07:29;;;;;;;4.40;1.30;;;;;;;;;;5037463;28;20037;-61
2021/01/13 10:09:56;;;;;;;8.52;1.20;;;;;;;;;;5039394;28;20436;-60
2021/01/13 10:12:23;;;;;;;6.60;1.27;;;;;;;;;;5042936;28;20057;-61
2021/01/13 10:14:51;;;;;;;3.38;0.80;;;;;;;;;;5038994;28;20060;-61
2021/01/13 10:17:24;;;;;;;11.10;1.45;;;;;;;;;;5042683;28;20037;-60
2021/01/13 10:19:50;;;;;;;4.38;1.00;;;;;;;;;;5041128;28;20049;-61
2021/01/13 10:22:18;;;;;;;4.63;1.00;;;;;;;;;;5041555;28;20056;-60
2021/01/13 10:24:47;;;;;;;5.50;1.25;;;;;;;;;;5041964;28;20057;-61
2021/01/13 10:27:16;;;;;;;4.05;0.77;;;;;;;;;;5039903;28;20053;-61
2021/01/13 10:29:44;;;;;;;7.72;1.08;;;;;;;;;;5036445;28;20036;-60
2021/01/13 10:32:11;;;;;;;10.13;1.13;;;;;;;;;;5039315;28;20049;-61
2021/01/13 10:34:38;;;;;;;4.70;1.25;;;;;;;;;;5042461;28;20091;-61
2021/01/13 10:37:04;;;;;;;7.80;1.25;;;;;;;;;;5038642;28;20034;-61
2021/01/13 10:39:30;;;;;;;6.75;1.17;;;;;;;;;;5044492;28;20045;-61
2021/01/13 10:41:57;;;;;;;10.27;1.38;;;;;;;;;;5041275;28;20119;-61
2021/01/13 10:44:24;;;;;;;7.28;2.03;;;;;;;;;;5043063;28;20053;-60
2021/01/13 10:46:51;;;;;;;7.63;1.33;;;;;;;;;;5038646;28;20041;-61
2021/01/13 10:49:25;;;;;;;11.75;1.35;;;;;;;;;;5043051;28;20037;-61
2021/01/13 10:51:53;;;;;;;6.75;1.08;;;;;;;;;;5031966;28;20076;-61
2021/01/13 10:54:21;;;;;;;10.68;1.23;;;;;;;;;;5042077;28;20045;-61
2021/01/13 10:56:51;;;;;;;5.75;1.55;;;;;;;;;;5038506;28;20045;-61
2021/01/13 10:59:17;;;;;;;5.90;1.02;;;;;;;;;;5041403;28;20056;-61
2021/01/13 11:01:48;;;;;;;9.90;1.02;;;;;;;;;;5030590;28;20047;-61
2021/01/13 11:04:21;;;;;;;3.80;1.20;;;;;;;;;;5025543;28;20094;-61
2021/01/13 11:06:48;;;;;;;2.72;0.82;;;;;;;;;;5029683;28;20037;-60
2021/01/13 11:09:16;;;;;;;13.88;4.03;;;;;;;;;;5033939;28;20053;-61
2021/01/13 11:11:43;;;;;;;34.80;26.80;;;;;;;;;;5042077;28;20045;-60
2021/01/13 11:14:12;;;;;;;48.47;23.73;;;;;;;;;;5038376;28;20037;-61
2021/01/13 11:16:58;;;;;;;41.78;27.08;;;;;;;;;;5042470;28;20057;-61
2021/01/13 11:19:25;;;;;;;72.10;25.05;;;;;;;;;;5054986;28;20080;-61
2021/01/13 11:21:54;;;;;;;58.50;24.13;;;;;;;;;;5042675;28;20041;-62
2021/01/13 11:24:27;;;;;;;41.88;13.75;;;;;;;;;;5035732;28;20065;-61
2021/01/13 11:26:54;;;;;;;78.82;23.27;;;;;;;;;;5043272;28;20056;-61
2021/01/13 11:29:21;;;;;;;23.73;7.50;;;;;;;;;;5037572;28;20045;-61
2021/01/13 11:31:49;;;;;;;14.85;4.38;;;;;;;;;;5041152;28;20029;-62
2021/01/13 11:34:20;;;;;;;17.15;4.45;;;;;;;;;;5038947;28;20037;-60
2021/01/13 11:36:47;;;;;;;36.33;2.85;;;;;;;;;;5044051;28;20037;-61
2021/01/13 11:39:17;;;;;;;25.85;2.45;;;;;;;;;;5038440;28;20045;-61
2021/01/13 11:42:01;;;;;;;17.95;2.60;;;;;;;;;;5041896;28;20041;-61
2021/01/13 11:44:29;;;;;;;13.55;1.20;;;;;;;;;;5038268;28;20061;-61
2021/01/13 11:47:10;;;;;;;5.97;1.55;;;;;;;;;;5042454;28;20049;-62
2021/01/13 11:49:47;;;;;;;3.85;1.23;;;;;;;;;;5035892;28;20048;-61
2021/01/13 11:52:14;;;;;;;9.50;1.38;;;;;;;;;;5042624;28;20052;-61
2021/01/13 11:54:41;;;;;;;8.13;1.45;;;;;;;;;;5044222;28;20029;-60
2021/01/13 11:57:16;;;;;;;6.15;1.30;;;;;;;;;;5042084;28;20029;-61
2021/01/13 11:59:43;;;;;;;2.63;0.82;;;;;;;;;;5037269;28;20033;-61
2021/01/13 12:02:17;;;;;;;8.93;1.05;;;;;;;;;;5043348;28;20037;-61
2021/01/13 12:04:43;;;;;;;10.48;0.75;;;;;;;;;;5031198;28;20126;-61
2021/01/13 12:07:12;;;;;;;14.80;1.08;;;;;;;;;;5026190;28;20033;-61
2021/01/13 12:09:41;;;;;;;;;;;;;;;;;;5017884;28;20167;-61
2021/01/13 12:12:12;;;;;;;9.60;1.23;;;;;;;;;;5025411;28;19917;-60
2021/01/13 12:14:39;;;;;;;17.02;2.00;;;;;;;;;;5031244;28;20127;-60
2021/01/13 12:17:08;;;;;;;3.90;0.82;;;;;;;;;;5040705;28;20048;-60
2021/01/13 12:19:37;;;;;;;9.10;1.38;;;;;;;;;;5022155;28;20048;-61
2021/01/13 12:22:04;;;;;;;5.75;0.90;;;;;;;;;;5020268;28;20038;-61
2021/01/13 12:24:41;;;;;;;4.78;0.90;;;;;;;;;;5011555;28;20052;-61
2021/01/13 12:27:20;;;;;;;13.75;1.48;;;;;;;;;;5014630;28;20033;-61
2021/01/13 12:29:46;;;;;;;2.53;0.52;;;;;;;;;;5039174;28;20048;-61
2021/01/13 12:32:17;;;;;;;9.07;1.65;;;;;;;;;;5026803;28;20029;-61
2021/01/13 12:34:47;;;;;;;11.82;1.13;;;;;;;;;;5020181;28;20056;-60
2021/01/13 12:37:13;;;;;;;5.95;1.27;;;;;;;;;;5013932;28;20071;-60
2021/01/13 12:39:42;;;;;;;5.47;0.98;;;;;;;;;;5033417;28;20041;-61
2021/01/13 12:42:22;;;;;;;1.67;0.68;;;;;;;;;;5029695;28;20048;-62
2021/01/13 12:44:48;;;;;;;8.83;0.83;;;;;;;;;;5029915;28;20044;-61
2021/01/13 12:47:24;;;;;;;9.93;0.73;;;;;;;;;;5030382;28;20039;-61
2021/01/13 12:49:52;;;;;;;8.40;0.90;;;;;;;;;;5049764;28;20040;-61
2021/01/13 12:52:21;;;;;;;6.97;0.63;;;;;;;;;;5037195;28;20049;-62
2021/01/13 12:54:47;;;;;;;5.30;0.85;;;;;;;;;;5040826;28;20134;-61
2021/01/13 12:57:14;;;;;;;11.30;1.15;;;;;;;;;;5036870;28;20037;-61
2021/01/13 12:59:40;;;;;;;7.93;1.05;;;;;;;;;;5041661;28;20055;-61
2021/01/13 13:02:07;;;;;;;8.02;0.90;;;;;;;;;;5036535;28;20055;-61
2021/01/13 13:04:34;;;;;;;7.38;0.90;;;;;;;;;;5039943;28;20045;-61
2021/01/13 13:07:02;;;;;;;1.67;0.73;;;;;;;;;;5037787;28;20053;-61
2021/01/13 13:09:28;;;;;;;5.28;0.88;;;;;;;;;;5040134;28;20022;-61
2021/01/13 13:11:55;;;;;;;7.47;1.00;;;;;;;;;;5040072;28;20128;-61
2021/01/13 13:14:24;;;;;;;2.88;0.82;;;;;;;;;;5043259;28;20077;-61
2021/01/13 13:17:04;;;;;;;6.00;0.80;;;;;;;;;;5032299;28;20048;-62
2021/01/13 13:19:30;;;;;;;3.67;0.90;;;;;;;;;;5022965;28;20190;-62
2021/01/13 13:21:58;;;;;;;6.40;0.75;;;;;;;;;;5023838;28;20042;-61
2021/01/13 13:24:24;;;;;;;9.75;0.73;;;;;;;;;;5042536;28;20037;-62
2021/01/13 13:26:52;;;;;;;4.28;0.70;;;;;;;;;;5045072;28;20049;-62
2021/01/13 13:29:18;;;;;;;4.03;0.70;;;;;;;;;;5040592;28;20045;-62
2021/01/13 13:31:48;;;;;;;5.32;0.80;;;;;;;;;;5044228;28;20033;-62
2021/01/13 13:34:14;;;;;;;5.25;1.10;;;;;;;;;;5040474;28;20045;-62
2021/01/13 13:36:43;;;;;;;6.68;1.10;;;;;;;;;;5043993;28;20053;-61
2021/01/13 13:39:10;;;;;;;10.48;1.05;;;;;;;;;;5040474;28;20060;-61
2021/01/13 13:41:36;;;;;;;10.02;1.38;;;;;;;;;;5043140;28;20057;-61
2021/01/13 13:44:02;;;;;;;11.60;1.48;;;;;;;;;;5039698;28;20037;-62
2021/01/13 13:46:28;;;;;;;12.02;1.30;;;;;;;;;;5043183;28;20069;-61
2021/01/13 13:48:55;;;;;;;2.70;1.10;;;;;;;;;;5043646;28;20056;-62
2021/01/13 13:51:23;;;;;;;5.35;0.90;;;;;;;;;;5060307;28;20061;-62
2021/01/13 13:53:49;;;;;;;;;;;;;;;;;;5040065;28;20037;-62
2021/01/13 13:56:17;;;;;;;8.60;1.02;;;;;;;;;;5058701;28;19927;-62
2021/01/13 13:58:43;;;;;;;13.57;1.08;;;;;;;;;;5037157;28;20053;-62
2021/01/13 14:01:10;;;;;;;7.32;1.00;;;;;;;;;;5042638;28;20043;-62
2021/01/13 14:03:36;;;;;;;4.65;0.73;;;;;;;;;;5041434;28;20053;-61
2021/01/13 14:06:03;;;;;;;6.45;1.10;;;;;;;;;;5038786;28;20048;-62
2021/01/13 14:08:29;;;;;;;7.68;0.90;;;;;;;;;;5023996;28;20074;-62
2021/01/13 14:10:57;;;;;;;2.88;0.63;;;;;;;;;;5038025;28;20057;-62
2021/01/13 14:13:24;;;;;;;9.77;0.90;;;;;;;;;;5043228;28;20037;-62
2021/01/13 14:15:50;;;;;;;6.47;1.00;;;;;;;;;;5038362;28;20060;-62
2021/01/13 14:18:16;;;;;;;8.90;2.08;;;;;;;;;;5042824;28;20060;-62
2021/01/13 14:20:42;;;;;;;13.50;3.00;;;;;;;;;;5034923;28;20074;-62
2021/01/13 14:23:09;;;;;;;8.25;1.30;;;;;;;;;;5023370;28;20037;-61
2021/01/13 14:25:35;;;;;;;3.42;0.93;;;;;;;;;;5029806;28;20033;-62
2021/01/13 14:28:01;;;;;;;6.80;1.20;;;;;;;;;;5043221;28;20045;-61
2021/01/13 14:30:30;;;;;;;6.85;0.75;;;;;;;;;;5037360;28;20029;-62
2021/01/13 14:32:56;;;;;;;6.28;0.80;;;;;;;;;;5041563;28;20126;-62
2021/01/13 14:35:22;;;;;;;9.85;1.10;;;;;;;;;;5040652;28;20093;-62
2021/01/13 14:37:49;;;;;;;8.30;1.00;;;;;;;;;;5041545;28;20034;-61
2021/01/13 14:40:16;;;;;;;3.90;0.85;;;;;;;;;;5037312;28;20072;-62
2021/01/13 14:42:42;;;;;;;2.55;0.90;;;;;;;;;;5031065;28;20049;-62
2021/01/13 14:45:08;;;;;;;2.80;0.75;;;;;;;;;;5027664;28;20045;-62
2021/01/13 14:47:36;;;;;;;4.35;0.60;;;;;;;;;;5038874;28;20043;-62
2021/01/13 14:50:02;;;;;;;6.22;0.90;;;;;;;;;;5042546;28;20041;-61
2021/01/13 14:52:31;;;;;;;5.97;0.95;;;;;;;;;;5052664;28;20044;-62
2021/01/13 14:54:57;;;;;;;7.18;1.17;;;;;;;;;;5044655;28;20091;-62
2021/01/13 14:57:23;;;;;;;6.57;0.73;;;;;;;;;;5041050;28;20041;-62
2021/01/13 14:59:49;;;;;;;3.92;1.00;;;;;;;;;;5041383;28;20133;-62
2021/01/13 15:02:15;;;;;;;2.90;0.85;;;;;;;;;;5034834;28;20048;-61